Time;durP1;ratioP1;P1;durP2;ratioP2;P2;SDS_P1;SDS_P2;PMS_P1;PMS_P2;Temp;Humidity;BMP_temperature;BMP_pressure;BME280_temperature;BME280_humidity;BME280_pressure;Samples;Min_cycle;Max_cycle;Signal;HPM_P1;HPM_P2
2021/04/21 00:02:21;;;;;;;23.33;15.10;;;;;;;10.42;56.80;99646.75;115526;1199;103064;-81
2021/04/21 00:04:50;;;;;;;21.93;15.40;;;;;;;10.40;57.01;99634.66;115533;1200;103021;-81
2021/04/21 00:07:19;;;;;;;22.85;15.70;;;;;;;10.38;57.19;99649.52;115570;1197;102980;-81
2021/04/21 00:09:48;;;;;;;22.23;16.43;;;;;;;10.31;57.50;99643.72;115594;1199;102982;-82
2021/04/21 00:12:21;;;;;;;22.97;16.17;;;;;;;10.27;57.74;99636.95;115587;1197;102884;-82
2021/04/21 00:14:51;;;;;;;24.10;16.57;;;;;;;10.23;57.74;99636.23;115513;1198;103057;-82
2021/04/21 00:17:23;;;;;;;24.30;16.90;;;;;;;10.23;57.77;99630.14;115530;1197;103034;-82
2021/04/21 00:19:53;;;;;;;22.93;17.23;;;;;;;10.22;57.95;99618.02;115581;1200;103001;-81
2021/04/21 00:22:23;;;;;;;22.57;17.33;;;;;;;10.20;57.98;99615.45;115559;1198;103156;-81
2021/04/21 00:24:52;;;;;;;22.33;17.83;;;;;;;10.19;57.95;99615.51;115573;1198;102976;-82
2021/04/21 00:27:23;;;;;;;25.30;17.87;;;;;;;10.18;58.00;99617.27;115534;1199;103051;-82
2021/04/21 00:29:56;;;;;;;25.20;17.57;;;;;;;10.17;58.37;99619.94;115502;1198;103031;-82
2021/04/21 00:32:26;;;;;;;27.90;18.60;;;;;;;10.15;58.13;99624.37;115512;1198;103321;-82
2021/04/21 00:34:58;;;;;;;23.23;17.70;;;;;;;10.14;58.41;99623.52;115524;1198;103182;-81
2021/04/21 00:37:29;;;;;;;27.23;17.77;;;;;;;10.12;58.56;99612.31;115715;1199;103414;-81
2021/04/21 00:39:59;;;;;;;24.00;17.70;;;;;;;10.09;58.63;99615.05;115535;1199;102803;-81
2021/04/21 00:42:44;;;;;;;26.33;18.07;;;;;;;10.08;58.68;99623.78;115569;1198;102030;-81
2021/04/21 00:45:14;;;;;;;22.50;17.37;;;;;;;10.05;58.87;99613.45;115565;1199;103034;-81
2021/04/21 00:47:44;;;;;;;24.70;19.00;;;;;;;10.01;58.92;99614.48;115639;1198;103158;-81
2021/04/21 00:50:28;;;;;;;26.23;17.83;;;;;;;10.01;59.00;99611.89;115531;1198;102998;-81
2021/04/21 00:53:27;;;;;;;25.67;19.30;;;;;;;9.98;59.25;99612.86;115522;1199;103239;-79
2021/04/21 00:56:06;;;;;;;28.93;19.07;;;;;;;9.95;59.35;99604.33;115498;1199;102976;-81
2021/04/21 00:58:54;;;;;;;27.27;19.77;;;;;;;9.94;59.27;99602.63;115783;1199;102985;-81
2021/04/21 01:01:22;;;;;;;28.97;20.27;;;;;;;9.94;59.60;99607.84;115550;1199;102813;-80
2021/04/21 01:03:52;;;;;;;28.93;20.27;;;;;;;9.93;59.70;99604.39;115562;1199;103056;-80
2021/04/21 01:06:28;;;;;;;26.57;20.03;;;;;;;9.92;59.96;99605.30;115547;1199;103121;-80
2021/04/21 01:08:58;;;;;;;28.50;20.57;;;;;;;9.89;59.69;99607.19;115578;1199;103185;-80
2021/04/21 01:11:33;;;;;;;28.47;20.10;;;;;;;9.86;59.92;99595.10;115480;1199;103047;-80
2021/04/21 01:14:06;;;;;;;32.07;21.60;;;;;;;9.84;59.90;99590.87;115493;1197;103145;-80
2021/04/21 01:16:35;;;;;;;32.40;21.75;;;;;;;9.81;60.03;99591.84;115513;1199;103101;-81
2021/04/21 01:19:12;;;;;;;27.93;20.80;;;;;;;9.81;60.11;99593.59;115541;1199;103019;-79
2021/04/21 01:21:47;;;;;;;28.98;20.63;;;;;;;9.80;60.42;99597.11;115610;1199;102976;-81
2021/04/21 01:24:29;;;;;;;29.47;20.83;;;;;;;9.81;60.31;99598.80;115535;1199;103191;-80
2021/04/21 01:27:03;;;;;;;27.80;20.90;;;;;;;9.81;60.50;99599.66;115594;1199;103124;-81
2021/04/21 01:29:52;;;;;;;30.70;21.83;;;;;;;9.80;60.45;99594.51;115600;1198;102992;-82
2021/04/21 01:32:22;;;;;;;29.93;20.33;;;;;;;9.79;60.56;99592.81;115584;1199;102816;-81
2021/04/21 01:34:53;;;;;;;31.17;21.53;;;;;;;9.78;60.74;99597.17;115578;1199;101106;-81
2021/04/21 01:37:33;;;;;;;27.63;20.07;;;;;;;9.76;60.82;99603.36;115568;1198;102983;-80
2021/04/21 01:40:07;;;;;;;31.57;21.57;;;;;;;9.73;60.92;99609.53;115517;1200;102977;-80
2021/04/21 01:42:39;;;;;;;29.20;21.70;;;;;;;9.68;61.06;99601.03;115530;1199;103037;-80
2021/04/21 01:45:07;;;;;;;31.20;22.70;;;;;;;9.65;61.18;99609.81;115496;1199;103187;-81
2021/04/21 01:47:35;;;;;;;32.95;22.65;;;;;;;9.59;61.27;99606.61;115610;1199;103053;-81
2021/04/21 01:50:12;;;;;;;30.00;22.80;;;;;;;9.52;61.84;99606.00;115530;1198;103179;-80
2021/04/21 01:52:51;;;;;;;31.17;23.67;;;;;;;9.48;61.76;99599.20;115507;1198;103142;-81
2021/04/21 01:55:22;;;;;;;27.20;21.57;;;;;;;9.48;62.18;99598.34;115772;1199;103025;-81
2021/04/21 01:58:00;;;;;;;35.20;23.10;;;;;;;9.46;62.07;99603.61;115626;1199;103012;-80
2021/04/21 02:00:32;;;;;;;30.23;21.97;;;;;;;9.45;62.41;99604.52;115792;1198;103072;-81
2021/04/21 02:03:23;;;;;;;28.23;22.43;;;;;;;9.44;62.72;99602.83;115661;1198;101374;-80
2021/04/21 02:06:04;;;;;;;31.77;22.83;;;;;;;9.43;62.96;99606.34;115547;1199;103195;-80
2021/04/21 02:08:46;;;;;;;34.60;23.33;;;;;;;9.43;63.09;99600.28;115638;1198;103044;-80
2021/04/21 02:11:47;;;;;;;31.00;23.30;;;;;;;9.44;63.21;99595.02;115493;1200;103076;-79
2021/04/21 02:14:29;;;;;;;32.83;23.13;;;;;;;9.44;63.44;99597.62;115564;1199;103944;-79
2021/04/21 02:17:15;;;;;;;35.77;25.30;;;;;;;9.44;63.63;99596.77;115525;1199;103002;-79
2021/04/21 02:20:06;;;;;;;32.67;24.27;;;;;;;9.42;63.49;99594.23;115480;1199;103002;-79
2021/04/21 02:22:47;;;;;;;33.13;24.30;;;;;;;9.41;63.98;99597.74;115612;1199;103031;-79
2021/04/21 02:25:19;;;;;;;33.37;24.63;;;;;;;9.40;63.47;99590.84;115535;1197;103101;-80
2021/04/21 02:28:19;;;;;;;35.87;25.87;;;;;;;9.39;64.14;99594.35;115623;1198;101826;-80
2021/04/21 02:31:05;;;;;;;36.80;25.23;;;;;;;9.35;64.11;99583.22;115544;1198;103054;-79
2021/04/21 02:33:43;;;;;;;36.40;26.87;;;;;;;9.31;64.38;99591.17;115472;1199;102986;-79
2021/04/21 02:36:41;;;;;;;37.47;26.10;;;;;;;9.30;64.50;99586.88;115648;1199;102996;-79
2021/04/21 02:39:24;;;;;;;36.95;26.50;;;;;;;9.29;64.45;99586.03;115560;1199;103043;-80
2021/04/21 02:42:20;;;;;;;36.60;26.20;;;;;;;9.30;64.74;99584.27;115612;1199;102979;-80
2021/04/21 02:45:11;;;;;;;33.87;26.20;;;;;;;9.27;65.01;99571.38;115737;1198;103156;-80
2021/04/21 02:47:47;;;;;;;35.45;26.90;;;;;;;9.22;65.27;99566.36;115601;1199;102989;-80
2021/04/21 02:50:33;;;;;;;37.83;28.70;;;;;;;9.19;65.27;99565.63;115783;1199;103031;-80
2021/04/21 02:53:09;;;;;;;37.87;28.10;;;;;;;9.18;65.15;99579.55;115568;1198;102988;-80
2021/04/21 02:55:52;;;;;;;39.45;28.50;;;;;;;9.16;65.70;99582.20;115617;1198;102955;-81
2021/04/21 02:59:02;;;;;;;39.67;28.83;;;;;;;9.17;65.46;99577.85;115557;1200;103015;-80
2021/04/21 03:01:54;;;;;;;37.03;27.30;;;;;;;9.20;65.76;99578.58;115684;1198;103105;-80
2021/04/21 03:04:27;;;;;;;36.03;28.33;;;;;;;9.20;65.97;99559.52;115604;1199;103040;-80
2021/04/21 03:06:59;;;;;;;36.73;27.60;;;;;;;9.22;65.94;99566.36;115731;1200;103127;-80
2021/04/21 03:10:00;;;;;;;39.47;28.93;;;;;;;9.22;65.61;99555.10;115566;1199;103015;-80
2021/04/21 03:12:30;;;;;;;39.10;28.80;;;;;;;9.20;65.47;99552.56;115577;1199;103069;-80
2021/04/21 03:15:05;;;;;;;42.97;29.27;;;;;;;9.21;65.86;99550.81;115525;1199;103003;-81
2021/04/21 03:17:35;;;;;;;35.23;27.73;;;;;;;9.23;65.58;99546.39;115531;1197;103145;-80
2021/04/21 03:20:13;;;;;;;38.63;28.50;;;;;;;9.25;65.68;99554.98;115534;1197;102993;-81
2021/04/21 03:22:44;;;;;;;38.20;27.07;;;;;;;9.26;65.44;99562.73;115628;1198;103501;-81
2021/04/21 03:25:34;;;;;;;36.37;28.30;;;;;;;9.28;65.92;99565.27;115546;1199;101488;-81
2021/04/21 03:28:11;;;;;;;37.20;27.57;;;;;;;9.25;65.97;99571.44;115582;1198;103529;-81
2021/04/21 03:30:39;;;;;;;38.23;26.43;;;;;;;9.24;66.43;99571.50;115787;1198;102973;-80
2021/04/21 03:33:12;;;;;;;35.73;26.90;;;;;;;9.20;66.02;99575.98;115591;1199;100948;-81
2021/04/21 03:35:42;;;;;;;36.60;27.77;;;;;;;9.18;66.67;99569.14;115602;1199;101847;-80
2021/04/21 03:38:12;;;;;;;36.50;28.57;;;;;;;9.15;66.28;99579.63;115573;1199;103085;-79
2021/04/21 03:40:40;;;;;;;35.45;27.50;;;;;;;9.15;66.40;99575.27;115556;1199;103011;-81
2021/04/21 03:43:09;;;;;;;36.60;27.60;;;;;;;9.17;66.48;99585.66;115571;1198;102845;-80
2021/04/21 03:45:39;;;;;;;40.20;29.33;;;;;;;9.17;66.86;99596.91;115539;1199;102994;-79
2021/04/21 03:48:08;;;;;;;39.73;29.83;;;;;;;9.18;66.41;99592.55;115581;1199;103146;-80
2021/04/21 03:50:36;;;;;;;39.30;28.45;;;;;;;9.19;66.54;99596.85;115735;1198;103229;-80
2021/04/21 03:53:07;;;;;;;38.87;29.27;;;;;;;9.19;66.85;99599.45;115510;1198;103137;-80
2021/04/21 03:55:36;;;;;;;38.67;28.77;;;;;;;9.18;66.88;99585.59;115523;1198;101804;-79
2021/04/21 03:58:10;;;;;;;37.07;28.67;;;;;;;9.17;67.11;99568.30;115502;1198;103131;-80
2021/04/21 04:00:39;;;;;;;42.57;32.33;;;;;;;9.15;67.41;99559.66;115520;1199;103025;-80
2021/04/21 04:03:14;;;;;;;41.80;30.93;;;;;;;9.08;67.70;99561.66;115627;1198;103030;-80
2021/04/21 04:06:01;;;;;;;40.13;30.87;;;;;;;8.99;68.20;99553.36;115566;1198;103251;-80
2021/04/21 04:08:38;;;;;;;42.27;31.77;;;;;;;8.90;68.47;99551.08;115585;1199;104508;-80
2021/04/21 04:11:11;;;;;;;38.93;29.77;;;;;;;8.83;68.54;99547.86;115562;1199;103047;-81
2021/04/21 04:13:43;;;;;;;40.67;30.37;;;;;;;8.81;68.51;99549.67;115622;1199;103488;-80
2021/04/21 04:16:12;;;;;;;40.35;30.40;;;;;;;8.82;69.12;99556.57;115558;1199;100756;-80
2021/04/21 04:18:42;;;;;;;43.13;30.70;;;;;;;8.81;69.40;99564.43;115545;1198;103128;-80
2021/04/21 04:21:13;;;;;;;43.83;32.93;;;;;;;8.77;69.03;99572.31;115584;1199;103159;-81
2021/04/21 04:23:42;;;;;;;42.40;30.70;;;;;;;8.78;69.24;99573.16;115558;1199;103034;-80
2021/04/21 04:26:12;;;;;;;39.10;30.13;;;;;;;8.77;69.86;99568.86;115539;1199;103092;-79
2021/04/21 04:28:41;;;;;;;44.33;32.07;;;;;;;8.74;70.00;99574.17;115608;1197;103565;-80
2021/04/21 04:31:08;;;;;;;43.43;32.70;;;;;;;8.73;69.70;99573.33;115521;1198;103034;-80
2021/04/21 04:33:43;;;;;;;38.67;29.70;;;;;;;8.73;69.83;99573.33;115581;1199;103159;-80
2021/04/21 04:36:11;;;;;;;40.70;30.27;;;;;;;8.77;69.68;99587.91;115616;1199;103059;-80
2021/04/21 04:38:39;;;;;;;42.20;30.63;;;;;;;8.84;69.56;99593.77;115556;1199;103059;-79
2021/04/21 04:41:08;;;;;;;43.20;31.90;;;;;;;8.91;69.35;99584.83;115618;1199;102371;-80
2021/04/21 04:43:36;;;;;;;42.77;31.57;;;;;;;9.02;69.53;99587.06;115641;1197;102979;-80
2021/04/21 04:46:06;;;;;;;40.47;31.17;;;;;;;9.08;69.32;99590.27;115546;1199;104665;-79
2021/04/21 04:48:44;;;;;;;41.73;31.00;;;;;;;9.19;69.39;99596.85;115588;1198;103120;-79
2021/04/21 04:51:12;;;;;;;42.23;31.43;;;;;;;9.27;69.01;99593.05;115615;1199;103024;-80
2021/04/21 04:53:41;;;;;;;39.83;30.23;;;;;;;9.37;68.85;99594.41;115535;1198;102331;-80
2021/04/21 04:56:09;;;;;;;41.83;30.30;;;;;;;9.61;68.86;99590.02;115622;1199;103140;-80
2021/04/21 04:58:40;;;;;;;40.43;30.23;;;;;;;10.03;68.26;99597.03;115609;1198;103076;-79
2021/04/21 05:01:09;;;;;;;38.27;29.13;;;;;;;10.51;67.57;99586.39;115609;1198;103092;-80
2021/04/21 05:03:47;;;;;;;36.57;27.53;;;;;;;10.86;66.73;99584.88;115654;1199;103443;-80
2021/04/21 05:06:17;;;;;;;34.70;26.67;;;;;;;10.96;66.25;99579.27;115537;1198;103447;-80
2021/04/21 05:08:49;;;;;;;34.53;26.90;;;;;;;11.00;65.48;99583.43;115510;1199;102851;-81
2021/04/21 05:11:19;;;;;;;35.40;26.67;;;;;;;10.98;65.44;99577.44;115530;1198;103066;-81
2021/04/21 05:13:49;;;;;;;34.17;26.20;;;;;;;10.96;65.22;99576.66;115557;1199;103072;-80
2021/04/21 05:16:26;;;;;;;33.93;26.33;;;;;;;10.95;64.95;99578.42;115511;1199;103085;-81
2021/04/21 05:19:08;;;;;;;31.98;25.48;;;;;;;11.19;65.06;99579.08;115592;1197;103022;-81
2021/04/21 05:21:56;;;;;;;35.33;25.80;;;;;;;11.79;64.43;99579.78;115716;1198;103011;-81
2021/04/21 05:25:01;;;;;;;34.00;25.53;;;;;;;12.32;63.28;99577.17;115601;1198;103075;-81
2021/04/21 05:28:06;;;;;;;32.50;23.97;;;;;;;12.46;62.42;99573.02;115562;1200;103015;-81
2021/04/21 05:31:11;;;;;;;33.25;24.70;;;;;;;12.56;61.97;99572.47;115520;1199;103060;-81
2021/04/21 05:33:45;;;;;;;30.97;24.43;;;;;;;12.77;61.22;99567.08;115593;1198;102982;-81
2021/04/21 05:36:24;;;;;;;28.57;22.90;;;;;;;14.04;61.28;99568.89;115558;1198;101944;-81
2021/04/21 05:39:22;;;;;;;28.53;21.60;;;;;;;15.71;59.11;99566.62;115663;1199;103172;-80
2021/04/21 05:42:17;;;;;;;30.35;22.00;;;;;;;16.46;55.42;99563.47;115711;1199;102998;-81
2021/04/21 05:45:03;;;;;;;26.77;21.90;;;;;;;16.44;54.69;99562.73;115483;1200;103047;-82
2021/04/21 05:47:52;;;;;;;26.57;19.93;;;;;;;17.75;53.50;99559.70;115586;1199;102938;-81
2021/04/21 05:50:38;;;;;;;25.33;20.43;;;;;;;19.49;52.02;99556.98;115730;1198;103117;-81
2021/04/21 05:53:29;;;;;;;26.80;19.70;;;;;;;21.08;49.31;99551.73;115554;1199;103082;-81
2021/04/21 05:56:15;;;;;;;20.10;17.27;;;;;;;22.39;46.13;99553.27;115809;1198;103037;-81
2021/04/21 05:59:21;;;;;;;21.63;16.97;;;;;;;23.41;43.11;99543.61;115745;1198;103099;-81
2021/04/21 06:01:49;;;;;;;19.80;16.20;;;;;;;24.22;41.50;99548.95;115573;1199;103053;-82
2021/04/21 06:04:16;;;;;;;19.60;15.35;;;;;;;24.82;40.18;99537.62;115547;1198;103102;-81
2021/04/21 06:06:43;;;;;;;23.07;15.90;;;;;;;25.45;38.52;99551.45;115620;1199;103002;-82
2021/04/21 06:09:11;;;;;;;17.70;14.87;;;;;;;25.30;38.11;99551.22;115766;1197;102995;-82
2021/04/21 06:11:39;;;;;;;18.73;14.83;;;;;;;26.07;37.54;99541.29;115667;1198;103005;-82
2021/04/21 06:14:08;;;;;;;19.30;15.20;;;;;;;26.78;35.23;99545.97;115592;1199;103005;-82
2021/04/21 06:16:37;;;;;;;17.43;15.03;;;;;;;27.20;34.82;99544.87;115538;1199;102992;-83
2021/04/21 06:19:07;;;;;;;16.23;14.37;;;;;;;27.56;33.53;99544.38;115625;1199;103048;-82
2021/04/21 06:21:39;;;;;;;18.75;15.30;;;;;;;27.83;32.37;99541.25;115517;1198;103016;-81
2021/04/21 06:24:21;;;;;;;18.13;13.90;;;;;;;28.42;32.33;99540.67;115785;1198;101149;-82
2021/04/21 06:26:49;;;;;;;17.60;14.07;;;;;;;28.85;31.16;99536.38;115574;1197;103009;-81
2021/04/21 06:29:18;;;;;;;17.23;13.87;;;;;;;29.24;29.84;99536.13;115499;1197;103734;-82
2021/04/21 06:31:51;;;;;;;15.37;13.43;;;;;;;29.18;29.67;99542.25;115466;1199;103069;-82
2021/04/21 06:34:19;;;;;;;19.10;14.97;;;;;;;29.64;29.30;99537.50;115535;1199;101811;-81
2021/04/21 06:36:50;;;;;;;16.37;14.53;;;;;;;29.94;28.74;99522.09;115552;1199;103079;-82
2021/04/21 06:39:22;;;;;;;16.83;14.23;;;;;;;30.17;27.51;99529.19;115548;1199;102179;-82
2021/04/21 06:41:58;;;;;;;13.90;12.30;;;;;;;30.15;26.85;99533.89;115494;1198;103136;-81
2021/04/21 06:44:46;;;;;;;;;;;;;;;30.32;27.19;99524.53;115700;1204;101622;-81
2021/04/21 06:47:21;;;;;;;;;;;;;;;30.70;27.15;99518.84;115576;1204;102899;-82
2021/04/21 06:50:03;;;;;;;15.97;12.90;;;;;;;31.04;26.46;99516.16;115777;1199;102293;-83
2021/04/21 06:52:44;;;;;;;18.10;13.67;;;;;;;31.47;26.53;99519.52;115614;1197;102996;-83
2021/04/21 06:55:16;;;;;;;20.07;13.03;;;;;;;31.86;25.09;99517.98;115477;1198;103098;-83
2021/04/21 06:57:44;;;;;;;16.03;12.17;;;;;;;31.79;25.19;99520.69;115506;1199;102964;-83
2021/04/21 07:00:15;;;;;;;14.43;12.43;;;;;;;31.88;24.71;99515.09;115529;1198;101927;-83
2021/04/21 07:02:44;;;;;;;15.67;13.20;;;;;;;31.69;24.58;99522.89;115575;1198;102897;-82
2021/04/21 07:05:36;;;;;;;12.93;11.50;;;;;;;32.02;24.57;99522.17;115590;1197;103094;-83
2021/04/21 07:08:15;;;;;;;13.63;11.97;;;;;;;32.12;24.04;99519.88;115520;1199;103127;-82
2021/04/21 07:10:48;;;;;;;15.73;12.03;;;;;;;32.27;23.83;99519.72;115734;1198;103107;-82
2021/04/21 07:13:29;;;;;;;12.33;11.03;;;;;;;32.38;23.25;99517.23;115547;1198;103073;-83
2021/04/21 07:15:59;;;;;;;11.80;10.37;;;;;;;32.33;23.30;99517.05;115785;1198;103111;-83
2021/04/21 07:18:33;;;;;;;12.43;10.67;;;;;;;32.59;22.82;99518.88;115603;1198;103056;-82
2021/04/21 07:21:02;;;;;;;12.40;10.57;;;;;;;32.63;22.76;99519.29;115549;1198;103053;-82
2021/04/21 07:23:30;;;;;;;14.53;10.90;;;;;;;32.93;22.86;99517.82;115525;1198;103021;-83
2021/04/21 07:25:58;;;;;;;13.85;10.30;;;;;;;33.21;22.02;99517.51;115518;1198;103545;-82
2021/04/21 07:28:26;;;;;;;10.30;9.30;;;;;;;33.11;21.94;99510.91;115572;1199;102989;-83
2021/04/21 07:30:55;;;;;;;12.00;9.33;;;;;;;33.31;21.90;99517.07;115543;1198;103019;-83
2021/04/21 07:33:37;;;;;;;11.80;9.70;;;;;;;33.38;21.27;99515.19;115633;1199;103232;-83
2021/04/21 07:36:23;;;;;;;13.47;11.80;;;;;;;33.46;21.46;99514.95;115548;1197;103078;-83
2021/04/21 07:38:54;;;;;;;12.25;9.45;;;;;;;33.78;21.78;99515.83;115533;1198;103091;-83
2021/04/21 07:41:51;;;;;;;10.87;9.10;;;;;;;34.05;21.06;99515.67;115743;1199;101880;-83
2021/04/21 07:44:37;;;;;;;12.13;9.13;;;;;;;33.97;20.60;99522.19;115526;1200;103008;-83
2021/04/21 07:47:07;;;;;;;13.70;9.60;;;;;;;33.22;19.37;99523.77;115828;1200;101838;-83
2021/04/21 07:49:40;;;;;;;12.57;10.77;;;;;;;32.34;20.78;99516.00;115718;1198;101145;-83
2021/04/21 07:52:07;;;;;;;13.03;11.60;;;;;;;32.00;20.86;99518.85;115627;1200;103021;-83
2021/04/21 07:54:37;;;;;;;13.57;11.17;;;;;;;31.74;21.02;99527.70;115639;1199;103024;-83
2021/04/21 07:57:15;;;;;;;13.83;11.63;;;;;;;31.57;21.84;99524.50;115607;1198;102996;-83
2021/04/21 07:59:46;;;;;;;16.60;12.37;;;;;;;31.82;21.76;99531.05;115557;1199;103139;-83
2021/04/21 08:02:17;;;;;;;14.37;11.83;;;;;;;31.69;21.35;99524.76;115640;1198;103127;-82
2021/04/21 08:04:46;;;;;;;15.27;11.77;;;;;;;31.46;21.96;99517.02;115557;1198;103197;-83
2021/04/21 08:07:34;;;;;;;16.20;12.70;;;;;;;31.15;22.32;99523.69;115601;1197;101768;-83
2021/04/21 08:10:08;;;;;;;15.97;12.90;;;;;;;30.90;22.50;99530.61;115594;1197;103143;-82
2021/04/21 08:12:37;;;;;;;14.13;12.63;;;;;;;29.79;22.42;99537.44;115585;1199;103200;-83
2021/04/21 08:15:11;;;;;;;16.60;14.33;;;;;;;28.58;23.52;99532.48;115770;1199;103060;-82
2021/04/21 08:17:59;;;;;;;14.63;12.77;;;;;;;27.27;24.47;99531.61;115576;1199;103005;-82
2021/04/21 08:20:31;;;;;;;14.95;13.35;;;;;;;25.95;25.98;99541.77;115548;1199;102964;-82
2021/04/21 08:23:00;;;;;;;14.73;13.23;;;;;;;25.13;27.14;99538.80;115537;1199;103008;-81
2021/04/21 08:25:28;;;;;;;17.10;13.77;;;;;;;24.23;28.07;99539.97;115558;1200;103121;-81
2021/04/21 08:27:55;;;;;;;18.70;15.80;;;;;;;24.05;28.97;99545.30;115672;1198;102948;-82
2021/04/21 08:30:25;;;;;;;19.13;15.93;;;;;;;23.86;29.98;99556.10;115566;1200;103092;-81
2021/04/21 08:32:52;;;;;;;20.27;17.47;;;;;;;24.22;30.40;99551.62;115557;1199;101322;-81
2021/04/21 08:35:20;;;;;;;20.77;17.20;;;;;;;24.14;29.89;99548.06;115758;1199;103031;-82
2021/04/21 08:37:48;;;;;;;20.77;17.33;;;;;;;23.47;30.48;99550.98;115591;1200;103177;-82
2021/04/21 08:40:18;;;;;;;19.33;16.47;;;;;;;22.73;31.86;99540.34;115611;1199;103079;-81
2021/04/21 08:42:52;;;;;;;21.07;17.07;;;;;;;21.82;32.77;99560.20;115795;1198;103008;-81
2021/04/21 08:45:20;;;;;;;22.53;17.43;;;;;;;20.76;34.29;99562.44;115655;1198;103099;-82
2021/04/21 08:47:49;;;;;;;22.53;18.50;;;;;;;19.93;35.16;99565.83;115547;1198;103003;-80
2021/04/21 08:50:17;;;;;;;23.70;18.40;;;;;;;19.85;36.11;99560.31;115509;1198;102008;-81
2021/04/21 08:52:51;;;;;;;24.50;18.53;;;;;;;20.18;36.35;99569.94;115453;1199;102823;-81
2021/04/21 08:55:19;;;;;;;22.17;17.83;;;;;;;20.21;36.56;99567.04;115622;1198;103532;-80
2021/04/21 08:57:47;;;;;;;23.30;17.60;;;;;;;20.07;36.45;99562.88;115578;1199;103092;-82
2021/04/21 09:00:20;;;;;;;25.13;19.27;;;;;;;19.53;36.68;99568.16;115547;1199;101549;-82
2021/04/21 09:02:47;;;;;;;21.73;17.83;;;;;;;19.20;37.44;99567.21;115573;1198;102668;-82
2021/04/21 09:05:18;;;;;;;25.07;17.77;;;;;;;19.05;38.09;99568.44;115528;1199;102816;-82
2021/04/21 09:07:46;;;;;;;22.17;17.20;;;;;;;18.86;38.29;99562.90;115537;1199;103076;-81
2021/04/21 09:10:18;;;;;;;23.93;18.77;;;;;;;19.50;39.00;99568.41;115604;1199;103085;-81
2021/04/21 09:12:46;;;;;;;22.47;17.40;;;;;;;20.54;38.02;99557.28;115581;1199;103121;-82
2021/04/21 09:15:16;;;;;;;25.07;17.10;;;;;;;21.19;36.72;99561.41;115572;1200;103162;-82
2021/04/21 09:17:49;;;;;;;21.47;16.07;;;;;;;21.71;35.95;99555.01;115625;1197;102973;-81
2021/04/21 09:20:24;;;;;;;19.20;15.73;;;;;;;22.37;35.51;99551.73;115575;1198;103011;-83
2021/04/21 09:23:16;;;;;;;19.65;16.20;;;;;;;23.02;35.33;99552.75;115683;1198;102976;-83
2021/04/21 09:25:45;;;;;;;17.73;15.23;;;;;;;24.10;34.34;99553.70;115513;1199;103072;-81
2021/04/21 09:28:13;;;;;;;19.00;15.73;;;;;;;24.67;33.20;99540.85;115545;1197;103194;-83
2021/04/21 09:30:45;;;;;;;19.80;15.90;;;;;;;24.83;32.75;99544.63;115614;1199;103002;-82
2021/04/21 09:33:12;;;;;;;18.20;15.23;;;;;;;25.13;31.81;99543.30;115497;1198;102965;-82
2021/04/21 09:35:42;;;;;;;19.93;16.20;;;;;;;24.67;31.70;99548.85;115552;1198;103015;-82
2021/04/21 09:38:18;;;;;;;17.57;15.27;;;;;;;24.75;32.04;99541.89;115544;1199;103127;-82
2021/04/21 09:40:49;;;;;;;16.75;14.98;;;;;;;25.20;31.72;99545.19;115501;1199;103008;-83
2021/04/21 09:43:28;;;;;;;17.43;14.80;;;;;;;25.68;31.64;99541.06;115504;1197;102915;-83
2021/04/21 09:46:04;;;;;;;19.23;14.83;;;;;;;26.17;30.72;99536.60;115553;1199;103098;-82
2021/04/21 09:48:35;;;;;;;19.20;14.85;;;;;;;26.49;30.05;99522.43;115517;1199;103022;-82
2021/04/21 09:51:11;;;;;;;18.23;15.30;;;;;;;26.67;29.95;99526.75;115580;1198;103076;-82
2021/04/21 09:53:42;;;;;;;15.50;13.87;;;;;;;26.91;29.83;99524.01;115814;1199;103107;-82
2021/04/21 09:56:26;;;;;;;14.75;11.20;;;;;;;27.25;29.04;99520.25;115425;1199;103033;-81
2021/04/21 09:58:55;;;;;;;17.97;12.20;;;;;;;27.32;28.15;99510.53;115597;1199;101957;-82
2021/04/21 10:01:23;;;;;;;14.35;12.35;;;;;;;27.63;28.28;99514.05;115526;1200;101842;-79
2021/04/21 10:04:13;;;;;;;13.07;11.43;;;;;;;27.78;27.70;99510.63;115922;1198;101911;-81
2021/04/21 10:06:47;;;;;;;14.80;11.80;;;;;;;28.12;27.22;99513.72;115397;1197;103159;-82
2021/04/21 10:09:23;;;;;;;13.15;10.70;;;;;;;28.51;26.26;99497.48;115708;1197;103051;-82
2021/04/21 10:11:52;;;;;;;10.55;9.10;;;;;;;28.60;25.39;99484.83;115713;1197;103121;-81
2021/04/21 10:14:24;;;;;;;12.53;9.33;;;;;;;28.00;25.19;99502.58;115730;1199;103104;-81
2021/04/21 10:16:52;;;;;;;11.70;8.67;;;;;;;27.76;25.80;99501.93;115840;1198;103063;-81
2021/04/21 10:19:20;;;;;;;23.23;11.67;;;;;;;27.85;25.65;99490.99;115774;1197;103069;-81
2021/04/21 10:21:47;;;;;;;17.60;10.77;;;;;;;27.84;25.41;99493.85;115762;1197;103120;-81
2021/04/21 10:24:15;;;;;;;14.83;10.17;;;;;;;27.86;25.44;99491.83;115758;1197;103096;-82
2021/04/21 10:26:42;;;;;;;16.73;9.83;;;;;;;27.88;24.93;99474.55;115654;1199;103101;-81
2021/04/21 10:29:12;;;;;;;12.47;8.37;;;;;;;27.77;24.84;99493.71;115759;1199;102977;-80
2021/04/21 10:31:40;;;;;;;11.23;9.23;;;;;;;27.72;24.29;99495.27;115784;1197;102819;-82
2021/04/21 10:34:08;;;;;;;13.20;9.17;;;;;;;27.53;23.91;99483.97;115713;1198;101774;-81
2021/04/21 10:36:35;;;;;;;11.23;8.43;;;;;;;27.34;24.37;99479.05;115773;1199;102855;-81
2021/04/21 10:39:03;;;;;;;14.53;9.90;;;;;;;27.12;24.72;99477.16;115794;1197;102878;-80
2021/04/21 10:41:44;;;;;;;11.63;9.63;;;;;;;26.80;24.52;99478.91;115810;1198;103034;-80
2021/04/21 10:44:22;;;;;;;15.10;8.90;;;;;;;26.50;24.42;99467.11;115784;1199;103146;-80
2021/04/21 10:46:59;;;;;;;13.80;8.37;;;;;;;26.26;25.38;99459.94;115667;1199;102982;-81
2021/04/21 10:49:37;;;;;;;12.27;7.50;;;;;;;26.04;25.42;99468.64;115896;1198;103146;-80
2021/04/21 10:52:11;;;;;;;9.00;7.10;;;;;;;25.78;24.94;99461.60;115868;1197;103099;-80
2021/04/21 10:54:38;;;;;;;10.80;7.47;;;;;;;25.37;25.02;99467.84;115836;1198;103066;-81
2021/04/21 10:57:26;;;;;;;9.93;7.37;;;;;;;25.08;25.45;99463.73;115802;1199;103136;-83
2021/04/21 11:00:13;;;;;;;10.30;6.73;;;;;;;24.77;24.82;99452.73;115705;1199;103015;-81
2021/04/21 11:02:40;;;;;;;11.67;6.27;;;;;;;24.53;25.09;99461.44;115813;1198;103012;-80
2021/04/21 11:05:10;;;;;;;8.83;6.70;;;;;;;24.25;25.02;99459.91;115732;1198;103081;-80
2021/04/21 11:07:40;;;;;;;6.43;5.47;;;;;;;24.03;24.61;99464.70;115705;1199;103467;-80
2021/04/21 11:10:10;;;;;;;9.83;5.67;;;;;;;23.83;24.89;99457.05;115576;1198;103181;-80
2021/04/21 11:12:53;;;;;;;11.23;5.77;;;;;;;23.60;25.81;99459.34;115804;1199;103041;-81
2021/04/21 11:15:34;;;;;;;9.00;5.33;;;;;;;23.46;25.80;99458.83;115649;1199;102999;-80
2021/04/21 11:18:07;;;;;;;9.60;4.67;;;;;;;23.45;25.76;99461.64;115697;1199;100960;-81
2021/04/21 11:20:47;;;;;;;9.40;5.20;;;;;;;23.32;26.17;99450.52;115719;1200;103264;-80
2021/04/21 11:26:23;;;;;;;8.20;5.30;;;;;;;23.08;25.66;99451.09;115683;1200;102980;-81
2021/04/21 11:29:21;;;;;;;8.57;5.17;;;;;;;23.03;26.30;99454.20;115704;1199;102919;-80
2021/04/21 11:31:48;;;;;;;8.17;4.80;;;;;;;22.95;26.42;99453.25;115448;1199;103519;-81
2021/04/21 11:34:28;;;;;;;8.63;5.40;;;;;;;22.89;26.08;99447.55;115600;1200;103056;-81
2021/04/21 11:36:59;;;;;;;9.40;5.50;;;;;;;22.72;26.33;99448.28;115904;1198;102798;-82
2021/04/21 11:39:42;;;;;;;11.30;5.40;;;;;;;22.51;26.09;99455.64;115854;1198;103110;-80
2021/04/21 11:42:23;;;;;;;11.37;5.53;;;;;;;22.41;26.74;99444.19;115828;1199;103075;-80
2021/04/21 11:45:20;;;;;;;9.07;5.77;;;;;;;22.27;26.84;99441.03;115777;1198;103025;-80
2021/04/21 11:48:19;;;;;;;10.07;5.87;;;;;;;22.23;27.17;99428.98;115844;1197;103165;-80